sensor_id;sensor_type;location;lat;lon;timestamp;temperature;humidity
76967;DHT22;65904;52.278;20.972;2023-07-24T00:01:21;21.00;99.90
76967;DHT22;65904;52.278;20.972;2023-07-24T00:04:07;20.90;99.90
76967;DHT22;65904;52.278;20.972;2023-07-24T00:06:54;20.90;99.90
76967;DHT22;65904;52.278;20.972;2023-07-24T00:09:40;20.90;99.90
76967;DHT22;65904;52.278;20.972;2023-07-24T00:12:26;21.00;99.90
76967;DHT22;65904;52.278;20.972;2023-07-24T00:15:14;21.10;99.90
76967;DHT22;65904;52.278;20.972;2023-07-24T00:18:00;21.10;99.90
76967;DHT22;65904;52.278;20.972;2023-07-24T00:20:46;21.20;99.90
76967;DHT22;65904;52.278;20.972;2023-07-24T00:23:33;21.20;99.90
76967;DHT22;65904;52.278;20.972;2023-07-24T00:26:18;21.30;99.90
76967;DHT22;65904;52.278;20.972;2023-07-24T00:29:05;21.30;99.90
76967;DHT22;65904;52.278;20.972;2023-07-24T00:31:52;21.30;99.90
76967;DHT22;65904;52.278;20.972;2023-07-24T00:34:38;21.40;99.90
76967;DHT22;65904;52.278;20.972;2023-07-24T00:37:24;21.40;99.90
76967;DHT22;65904;52.278;20.972;2023-07-24T00:40:11;21.40;99.90
76967;DHT22;65904;52.278;20.972;2023-07-24T00:42:58;21.40;99.90
76967;DHT22;65904;52.278;20.972;2023-07-24T00:45:44;21.50;99.90
76967;DHT22;65904;52.278;20.972;2023-07-24T00:48:34;21.50;99.90
76967;DHT22;65904;52.278;20.972;2023-07-24T00:51:21;21.60;99.90
76967;DHT22;65904;52.278;20.972;2023-07-24T00:54:07;21.60;99.90
76967;DHT22;65904;52.278;20.972;2023-07-24T00:56:54;21.60;99.90
76967;DHT22;65904;52.278;20.972;2023-07-24T00:59:40;21.60;99.90
76967;DHT22;65904;52.278;20.972;2023-07-24T01:02:27;21.60;99.90
76967;DHT22;65904;52.278;20.972;2023-07-24T01:05:16;21.60;99.90
76967;DHT22;65904;52.278;20.972;2023-07-24T01:08:03;21.60;99.90
76967;DHT22;65904;52.278;20.972;2023-07-24T01:10:50;21.60;99.90
76967;DHT22;65904;52.278;20.972;2023-07-24T01:13:41;21.70;99.90
76967;DHT22;65904;52.278;20.972;2023-07-24T01:16:36;21.70;99.90
76967;DHT22;65904;52.278;20.972;2023-07-24T01:19:33;21.60;99.90
76967;DHT22;65904;52.278;20.972;2023-07-24T01:22:32;21.60;99.90
76967;DHT22;65904;52.278;20.972;2023-07-24T01:25:31;21.60;99.90
76967;DHT22;65904;52.278;20.972;2023-07-24T01:28:21;21.60;99.90
76967;DHT22;65904;52.278;20.972;2023-07-24T01:31:08;21.60;99.90
76967;DHT22;65904;52.278;20.972;2023-07-24T01:33:56;21.60;99.90
76967;DHT22;65904;52.278;20.972;2023-07-24T01:36:42;21.60;99.90
76967;DHT22;65904;52.278;20.972;2023-07-24T01:39:29;21.60;99.90
76967;DHT22;65904;52.278;20.972;2023-07-24T01:42:15;21.60;99.90
76967;DHT22;65904;52.278;20.972;2023-07-24T01:45:04;21.60;99.90
76967;DHT22;65904;52.278;20.972;2023-07-24T01:47:51;21.60;99.90
76967;DHT22;65904;52.278;20.972;2023-07-24T01:50:37;21.60;99.90
76967;DHT22;65904;52.278;20.972;2023-07-24T01:53:23;21.60;99.90
76967;DHT22;65904;52.278;20.972;2023-07-24T01:56:09;21.60;99.90
76967;DHT22;65904;52.278;20.972;2023-07-24T01:58:56;21.60;99.90
76967;DHT22;65904;52.278;20.972;2023-07-24T02:01:43;21.60;99.90
76967;DHT22;65904;52.278;20.972;2023-07-24T02:04:30;21.60;99.90
76967;DHT22;65904;52.278;20.972;2023-07-24T02:07:16;21.60;99.90
76967;DHT22;65904;52.278;20.972;2023-07-24T02:10:02;21.70;99.90
76967;DHT22;65904;52.278;20.972;2023-07-24T02:12:49;21.70;99.90
76967;DHT22;65904;52.278;20.972;2023-07-24T02:15:35;21.70;99.90
76967;DHT22;65904;52.278;20.972;2023-07-24T02:18:23;21.70;99.90
76967;DHT22;65904;52.278;20.972;2023-07-24T02:21:10;21.70;99.90
76967;DHT22;65904;52.278;20.972;2023-07-24T02:23:56;21.70;99.90
76967;DHT22;65904;52.278;20.972;2023-07-24T02:26:42;21.70;99.90
76967;DHT22;65904;52.278;20.972;2023-07-24T02:29:28;21.60;99.90
76967;DHT22;65904;52.278;20.972;2023-07-24T02:32:14;21.60;99.90
76967;DHT22;65904;52.278;20.972;2023-07-24T02:35:02;21.60;99.90
76967;DHT22;65904;52.278;20.972;2023-07-24T02:37:48;21.50;99.90
76967;DHT22;65904;52.278;20.972;2023-07-24T02:40:35;21.50;99.90
76967;DHT22;65904;52.278;20.972;2023-07-24T02:43:21;21.40;99.90
76967;DHT22;65904;52.278;20.972;2023-07-24T02:46:07;21.40;99.90
76967;DHT22;65904;52.278;20.972;2023-07-24T02:48:54;21.30;99.90
76967;DHT22;65904;52.278;20.972;2023-07-24T02:51:41;21.30;99.90
76967;DHT22;65904;52.278;20.972;2023-07-24T02:54:27;21.30;99.90
76967;DHT22;65904;52.278;20.972;2023-07-24T02:57:13;21.20;99.90
76967;DHT22;65904;52.278;20.972;2023-07-24T02:59:59;21.20;99.90
76967;DHT22;65904;52.278;20.972;2023-07-24T03:02:45;21.10;99.90
76967;DHT22;65904;52.278;20.972;2023-07-24T03:05:34;21.10;99.90
76967;DHT22;65904;52.278;20.972;2023-07-24T03:08:21;21.10;99.90
76967;DHT22;65904;52.278;20.972;2023-07-24T03:11:08;21.10;99.90
76967;DHT22;65904;52.278;20.972;2023-07-24T03:13:54;21.10;99.90
76967;DHT22;65904;52.278;20.972;2023-07-24T03:16:41;21.10;99.90
76967;DHT22;65904;52.278;20.972;2023-07-24T03:19:27;21.10;99.90
76967;DHT22;65904;52.278;20.972;2023-07-24T03:22:13;21.00;99.90
76967;DHT22;65904;52.278;20.972;2023-07-24T03:25:00;21.10;99.90
76967;DHT22;65904;52.278;20.972;2023-07-24T03:27:47;21.00;99.90
76967;DHT22;65904;52.278;20.972;2023-07-24T03:30:33;21.00;99.90
76967;DHT22;65904;52.278;20.972;2023-07-24T03:33:19;21.00;99.90
76967;DHT22;65904;52.278;20.972;2023-07-24T03:36:05;20.90;99.90
76967;DHT22;65904;52.278;20.972;2023-07-24T03:38:53;20.90;99.90
76967;DHT22;65904;52.278;20.972;2023-07-24T03:41:42;20.90;99.90
76967;DHT22;65904;52.278;20.972;2023-07-24T03:44:29;20.90;99.90
76967;DHT22;65904;52.278;20.972;2023-07-24T03:47:15;20.80;99.90
76967;DHT22;65904;52.278;20.972;2023-07-24T03:50:01;20.80;99.90
76967;DHT22;65904;52.278;20.972;2023-07-24T03:52:47;20.80;99.90
76967;DHT22;65904;52.278;20.972;2023-07-24T03:55:33;20.80;99.90
76967;DHT22;65904;52.278;20.972;2023-07-24T03:58:21;20.80;99.90
76967;DHT22;65904;52.278;20.972;2023-07-24T04:01:07;20.80;99.90
76967;DHT22;65904;52.278;20.972;2023-07-24T04:03:53;20.80;99.90
76967;DHT22;65904;52.278;20.972;2023-07-24T04:06:40;20.80;99.90
76967;DHT22;65904;52.278;20.972;2023-07-24T04:09:26;20.80;99.90
76967;DHT22;65904;52.278;20.972;2023-07-24T04:12:13;20.80;99.90
76967;DHT22;65904;52.278;20.972;2023-07-24T04:15:00;20.80;99.90
76967;DHT22;65904;52.278;20.972;2023-07-24T04:17:47;20.80;99.90
76967;DHT22;65904;52.278;20.972;2023-07-24T04:20:32;20.90;99.90
76967;DHT22;65904;52.278;20.972;2023-07-24T04:23:19;20.80;99.90
76967;DHT22;65904;52.278;20.972;2023-07-24T04:26:05;20.90;99.90
76967;DHT22;65904;52.278;20.972;2023-07-24T04:28:52;20.90;99.90
76967;DHT22;65904;52.278;20.972;2023-07-24T04:31:39;20.90;99.90
76967;DHT22;65904;52.278;20.972;2023-07-24T04:34:26;20.90;99.90
76967;DHT22;65904;52.278;20.972;2023-07-24T04:37:12;20.90;99.90
76967;DHT22;65904;52.278;20.972;2023-07-24T04:39:58;20.90;99.90
76967;DHT22;65904;52.278;20.972;2023-07-24T04:42:44;20.90;99.90
76967;DHT22;65904;52.278;20.972;2023-07-24T04:45:30;21.00;99.90
76967;DHT22;65904;52.278;20.972;2023-07-24T04:48:18;21.00;99.90
76967;DHT22;65904;52.278;20.972;2023-07-24T04:51:04;21.10;99.90
76967;DHT22;65904;52.278;20.972;2023-07-24T04:53:50;21.00;99.90
76967;DHT22;65904;52.278;20.972;2023-07-24T04:56:36;21.00;99.90
76967;DHT22;65904;52.278;20.972;2023-07-24T04:59:22;21.00;99.90
76967;DHT22;65904;52.278;20.972;2023-07-24T05:02:09;21.20;99.90
76967;DHT22;65904;52.278;20.972;2023-07-24T05:04:56;21.20;99.90
76967;DHT22;65904;52.278;20.972;2023-07-24T05:07:43;21.30;99.90
76967;DHT22;65904;52.278;20.972;2023-07-24T05:10:29;21.40;99.90
76967;DHT22;65904;52.278;20.972;2023-07-24T05:13:15;21.50;99.90
76967;DHT22;65904;52.278;20.972;2023-07-24T05:16:01;21.60;99.90
76967;DHT22;65904;52.278;20.972;2023-07-24T05:18:48;21.60;99.90
76967;DHT22;65904;52.278;20.972;2023-07-24T05:21:35;21.60;99.90
76967;DHT22;65904;52.278;20.972;2023-07-24T05:24:22;21.60;99.90
76967;DHT22;65904;52.278;20.972;2023-07-24T05:27:08;21.50;99.90
76967;DHT22;65904;52.278;20.972;2023-07-24T05:29:54;21.50;99.90
76967;DHT22;65904;52.278;20.972;2023-07-24T05:32:40;21.50;99.90
76967;DHT22;65904;52.278;20.972;2023-07-24T05:35:27;21.50;99.90
76967;DHT22;65904;52.278;20.972;2023-07-24T05:38:14;21.50;99.90
76967;DHT22;65904;52.278;20.972;2023-07-24T05:41:02;21.50;99.90
76967;DHT22;65904;52.278;20.972;2023-07-24T05:43:49;21.40;99.90
76967;DHT22;65904;52.278;20.972;2023-07-24T05:46:35;21.50;99.90
76967;DHT22;65904;52.278;20.972;2023-07-24T05:49:21;21.50;99.90
76967;DHT22;65904;52.278;20.972;2023-07-24T05:52:07;21.50;99.90
76967;DHT22;65904;52.278;20.972;2023-07-24T05:54:54;21.50;99.90
76967;DHT22;65904;52.278;20.972;2023-07-24T05:57:41;21.60;99.90
76967;DHT22;65904;52.278;20.972;2023-07-24T06:00:27;21.60;99.90
76967;DHT22;65904;52.278;20.972;2023-07-24T06:03:13;21.70;99.90
76967;DHT22;65904;52.278;20.972;2023-07-24T06:05:58;21.80;99.90
76967;DHT22;65904;52.278;20.972;2023-07-24T06:08:45;21.80;99.90
76967;DHT22;65904;52.278;20.972;2023-07-24T06:11:32;21.70;99.90
76967;DHT22;65904;52.278;20.972;2023-07-24T06:14:19;21.70;99.90
76967;DHT22;65904;52.278;20.972;2023-07-24T06:17:05;21.70;99.90
76967;DHT22;65904;52.278;20.972;2023-07-24T06:19:51;21.60;99.90
76967;DHT22;65904;52.278;20.972;2023-07-24T06:22:37;21.60;99.90
76967;DHT22;65904;52.278;20.972;2023-07-24T06:25:23;21.60;99.90
76967;DHT22;65904;52.278;20.972;2023-07-24T06:28:11;21.70;99.90
76967;DHT22;65904;52.278;20.972;2023-07-24T06:30:57;21.80;99.90
76967;DHT22;65904;52.278;20.972;2023-07-24T06:33:43;21.90;99.90
76967;DHT22;65904;52.278;20.972;2023-07-24T06:36:29;22.10;99.90
76967;DHT22;65904;52.278;20.972;2023-07-24T06:39:16;22.10;99.90
76967;DHT22;65904;52.278;20.972;2023-07-24T06:42:03;22.00;99.90
76967;DHT22;65904;52.278;20.972;2023-07-24T06:44:50;22.00;99.90
76967;DHT22;65904;52.278;20.972;2023-07-24T06:47:36;22.10;99.90
76967;DHT22;65904;52.278;20.972;2023-07-24T06:50:22;22.10;99.90
76967;DHT22;65904;52.278;20.972;2023-07-24T06:53:08;22.10;99.90
76967;DHT22;65904;52.278;20.972;2023-07-24T06:55:55;22.00;99.90
76967;DHT22;65904;52.278;20.972;2023-07-24T06:58:41;22.00;99.90
76967;DHT22;65904;52.278;20.972;2023-07-24T07:01:28;22.10;99.90
76967;DHT22;65904;52.278;20.972;2023-07-24T07:04:16;22.20;99.90
76967;DHT22;65904;52.278;20.972;2023-07-24T07:07:02;22.30;99.90
76967;DHT22;65904;52.278;20.972;2023-07-24T07:09:48;22.40;99.90
76967;DHT22;65904;52.278;20.972;2023-07-24T07:12:35;22.50;99.90
76967;DHT22;65904;52.278;20.972;2023-07-24T07:15:21;22.60;99.90
76967;DHT22;65904;52.278;20.972;2023-07-24T07:18:08;22.60;99.90
76967;DHT22;65904;52.278;20.972;2023-07-24T07:20:54;22.70;99.90
76967;DHT22;65904;52.278;20.972;2023-07-24T07:23:41;22.90;99.90
76967;DHT22;65904;52.278;20.972;2023-07-24T07:26:27;23.10;99.90
76967;DHT22;65904;52.278;20.972;2023-07-24T07:29:14;23.20;99.90
76967;DHT22;65904;52.278;20.972;2023-07-24T07:32:00;23.30;99.90
76967;DHT22;65904;52.278;20.972;2023-07-24T07:34:48;23.40;99.90
76967;DHT22;65904;52.278;20.972;2023-07-24T07:37:34;23.60;99.90
76967;DHT22;65904;52.278;20.972;2023-07-24T07:40:20;23.60;99.90
76967;DHT22;65904;52.278;20.972;2023-07-24T07:43:08;23.60;99.90
76967;DHT22;65904;52.278;20.972;2023-07-24T07:45:54;23.60;99.90
76967;DHT22;65904;52.278;20.972;2023-07-24T07:48:41;23.50;99.90
76967;DHT22;65904;52.278;20.972;2023-07-24T07:51:28;23.50;99.90
76967;DHT22;65904;52.278;20.972;2023-07-24T07:54:14;23.60;99.90
76967;DHT22;65904;52.278;20.972;2023-07-24T07:57:01;23.70;99.90
76967;DHT22;65904;52.278;20.972;2023-07-24T07:59:47;23.80;99.90
76967;DHT22;65904;52.278;20.972;2023-07-24T08:02:33;24.10;99.90
76967;DHT22;65904;52.278;20.972;2023-07-24T08:05:20;24.00;99.90
76967;DHT22;65904;52.278;20.972;2023-07-24T08:08:07;24.00;99.90
76967;DHT22;65904;52.278;20.972;2023-07-24T08:10:53;24.00;99.90
76967;DHT22;65904;52.278;20.972;2023-07-24T08:13:40;23.80;99.90
76967;DHT22;65904;52.278;20.972;2023-07-24T08:16:26;23.80;99.90
76967;DHT22;65904;52.278;20.972;2023-07-24T08:19:12;23.90;99.90
76967;DHT22;65904;52.278;20.972;2023-07-24T08:21:58;23.90;99.90
76967;DHT22;65904;52.278;20.972;2023-07-24T08:24:45;23.90;99.90
76967;DHT22;65904;52.278;20.972;2023-07-24T08:27:31;24.00;99.90
76967;DHT22;65904;52.278;20.972;2023-07-24T08:30:18;24.10;99.90
76967;DHT22;65904;52.278;20.972;2023-07-24T08:33:04;24.30;99.90
76967;DHT22;65904;52.278;20.972;2023-07-24T08:35:59;24.40;99.90
76967;DHT22;65904;52.278;20.972;2023-07-24T08:38:45;24.60;99.90
76967;DHT22;65904;52.278;20.972;2023-07-24T08:41:33;24.90;99.90
76967;DHT22;65904;52.278;20.972;2023-07-24T08:44:20;25.20;99.90
76967;DHT22;65904;52.278;20.972;2023-07-24T08:47:10;25.40;99.90
76967;DHT22;65904;52.278;20.972;2023-07-24T08:49:56;25.30;99.90
76967;DHT22;65904;52.278;20.972;2023-07-24T08:52:43;25.50;99.90
76967;DHT22;65904;52.278;20.972;2023-07-24T08:55:31;25.50;99.90
76967;DHT22;65904;52.278;20.972;2023-07-24T08:58:18;25.50;99.90
76967;DHT22;65904;52.278;20.972;2023-07-24T09:01:05;25.50;99.90
76967;DHT22;65904;52.278;20.972;2023-07-24T09:03:52;25.60;99.90
76967;DHT22;65904;52.278;20.972;2023-07-24T09:06:38;25.90;99.90
76967;DHT22;65904;52.278;20.972;2023-07-24T09:09:29;25.70;99.90
76967;DHT22;65904;52.278;20.972;2023-07-24T09:12:16;26.20;99.90
76967;DHT22;65904;52.278;20.972;2023-07-24T09:15:05;26.50;99.90
76967;DHT22;65904;52.278;20.972;2023-07-24T09:17:52;26.80;99.90
76967;DHT22;65904;52.278;20.972;2023-07-24T09:20:39;27.20;99.90
76967;DHT22;65904;52.278;20.972;2023-07-24T09:23:27;27.20;99.90
76967;DHT22;65904;52.278;20.972;2023-07-24T09:26:13;27.40;99.90
76967;DHT22;65904;52.278;20.972;2023-07-24T09:28:59;27.30;99.90
76967;DHT22;65904;52.278;20.972;2023-07-24T09:31:47;27.70;99.90
76967;DHT22;65904;52.278;20.972;2023-07-24T09:34:42;27.50;99.90
76967;DHT22;65904;52.278;20.972;2023-07-24T09:37:30;27.30;99.90
76967;DHT22;65904;52.278;20.972;2023-07-24T09:40:16;27.40;99.90
76967;DHT22;65904;52.278;20.972;2023-07-24T09:43:02;27.30;99.90
76967;DHT22;65904;52.278;20.972;2023-07-24T09:45:50;27.30;99.90
76967;DHT22;65904;52.278;20.972;2023-07-24T09:48:37;27.00;99.90
76967;DHT22;65904;52.278;20.972;2023-07-24T09:51:24;26.90;99.90
76967;DHT22;65904;52.278;20.972;2023-07-24T09:54:12;27.10;99.90
76967;DHT22;65904;52.278;20.972;2023-07-24T09:57:01;27.20;99.90
76967;DHT22;65904;52.278;20.972;2023-07-24T09:59:48;27.50;99.90
76967;DHT22;65904;52.278;20.972;2023-07-24T10:02:36;27.80;99.40
76967;DHT22;65904;52.278;20.972;2023-07-24T10:05:23;27.90;99.60
76967;DHT22;65904;52.278;20.972;2023-07-24T10:08:10;27.70;99.40
76967;DHT22;65904;52.278;20.972;2023-07-24T10:10:56;27.90;99.20
76967;DHT22;65904;52.278;20.972;2023-07-24T10:13:43;28.00;98.80
76967;DHT22;65904;52.278;20.972;2023-07-24T10:16:30;28.20;98.30
76967;DHT22;65904;52.278;20.972;2023-07-24T10:19:17;28.30;97.90
76967;DHT22;65904;52.278;20.972;2023-07-24T10:22:04;28.20;98.00
76967;DHT22;65904;52.278;20.972;2023-07-24T10:24:50;28.20;97.50
76967;DHT22;65904;52.278;20.972;2023-07-24T10:27:39;28.30;97.80
76967;DHT22;65904;52.278;20.972;2023-07-24T10:30:28;27.70;97.20
76967;DHT22;65904;52.278;20.972;2023-07-24T10:33:18;27.90;98.10
76967;DHT22;65904;52.278;20.972;2023-07-24T10:36:06;27.70;97.50
76967;DHT22;65904;52.278;20.972;2023-07-24T10:38:55;27.60;98.00
76967;DHT22;65904;52.278;20.972;2023-07-24T10:41:42;27.50;98.00
76967;DHT22;65904;52.278;20.972;2023-07-24T10:44:30;27.50;98.00
76967;DHT22;65904;52.278;20.972;2023-07-24T10:47:18;27.30;98.10
76967;DHT22;65904;52.278;20.972;2023-07-24T10:50:06;27.50;98.00
76967;DHT22;65904;52.278;20.972;2023-07-24T10:52:52;27.50;97.90
76967;DHT22;65904;52.278;20.972;2023-07-24T10:55:40;27.50;97.60
76967;DHT22;65904;52.278;20.972;2023-07-24T10:58:27;27.50;97.90
76967;DHT22;65904;52.278;20.972;2023-07-24T11:01:13;27.80;97.70
76967;DHT22;65904;52.278;20.972;2023-07-24T11:04:00;27.60;97.10
76967;DHT22;65904;52.278;20.972;2023-07-24T11:06:52;27.90;97.50
76967;DHT22;65904;52.278;20.972;2023-07-24T11:09:39;28.40;96.50
76967;DHT22;65904;52.278;20.972;2023-07-24T11:12:27;28.70;96.20
76967;DHT22;65904;52.278;20.972;2023-07-24T11:15:15;29.20;95.60
76967;DHT22;65904;52.278;20.972;2023-07-24T11:18:01;29.90;94.30
76967;DHT22;65904;52.278;20.972;2023-07-24T11:20:50;31.00;92.50
76967;DHT22;65904;52.278;20.972;2023-07-24T11:23:36;31.60;91.40
76967;DHT22;65904;52.278;20.972;2023-07-24T11:26:24;32.10;88.00
76967;DHT22;65904;52.278;20.972;2023-07-24T11:29:13;32.40;87.20
76967;DHT22;65904;52.278;20.972;2023-07-24T11:31:59;32.30;84.70
76967;DHT22;65904;52.278;20.972;2023-07-24T11:34:45;33.00;82.60
76967;DHT22;65904;52.278;20.972;2023-07-24T11:37:32;33.70;80.60
76967;DHT22;65904;52.278;20.972;2023-07-24T11:40:19;34.20;76.80
76967;DHT22;65904;52.278;20.972;2023-07-24T11:43:05;33.70;74.80
76967;DHT22;65904;52.278;20.972;2023-07-24T11:45:53;34.50;72.80
76967;DHT22;65904;52.278;20.972;2023-07-24T11:48:41;34.80;70.80
76967;DHT22;65904;52.278;20.972;2023-07-24T11:51:27;35.50;67.80
76967;DHT22;65904;52.278;20.972;2023-07-24T11:54:14;35.20;66.00
76967;DHT22;65904;52.278;20.972;2023-07-24T11:57:00;34.80;66.40
76967;DHT22;65904;52.278;20.972;2023-07-24T11:59:47;34.00;66.80
76967;DHT22;65904;52.278;20.972;2023-07-24T12:02:34;35.00;65.40
76967;DHT22;65904;52.278;20.972;2023-07-24T12:05:21;35.00;64.70
76967;DHT22;65904;52.278;20.972;2023-07-24T12:08:07;34.70;64.70
76967;DHT22;65904;52.278;20.972;2023-07-24T12:10:53;34.00;65.10
76967;DHT22;65904;52.278;20.972;2023-07-24T12:13:40;33.00;67.30
76967;DHT22;65904;52.278;20.972;2023-07-24T12:16:28;31.80;68.60
76967;DHT22;65904;52.278;20.972;2023-07-24T12:19:16;31.50;71.30
76967;DHT22;65904;52.278;20.972;2023-07-24T12:22:03;31.40;72.00
76967;DHT22;65904;52.278;20.972;2023-07-24T12:24:49;30.80;72.50
76967;DHT22;65904;52.278;20.972;2023-07-24T12:27:35;31.30;71.80
76967;DHT22;65904;52.278;20.972;2023-07-24T12:30:22;32.20;71.40
76967;DHT22;65904;52.278;20.972;2023-07-24T12:33:08;32.40;70.00
76967;DHT22;65904;52.278;20.972;2023-07-24T12:35:55;31.50;70.60
76967;DHT22;65904;52.278;20.972;2023-07-24T12:38:42;32.20;71.10
76967;DHT22;65904;52.278;20.972;2023-07-24T12:41:28;32.10;70.40
76967;DHT22;65904;52.278;20.972;2023-07-24T12:44:14;32.20;71.50
76967;DHT22;65904;52.278;20.972;2023-07-24T12:47:00;32.40;68.70
76967;DHT22;65904;52.278;20.972;2023-07-24T12:49:47;33.50;68.30
76967;DHT22;65904;52.278;20.972;2023-07-24T12:52:34;33.90;65.60
76967;DHT22;65904;52.278;20.972;2023-07-24T12:55:20;33.70;66.90
76967;DHT22;65904;52.278;20.972;2023-07-24T12:58:06;33.60;65.40
76967;DHT22;65904;52.278;20.972;2023-07-24T13:00:52;33.70;64.60
76967;DHT22;65904;52.278;20.972;2023-07-24T13:03:38;34.30;63.30
76967;DHT22;65904;52.278;20.972;2023-07-24T13:06:25;34.50;62.70
76967;DHT22;65904;52.278;20.972;2023-07-24T13:09:12;34.80;62.60
76967;DHT22;65904;52.278;20.972;2023-07-24T13:11:58;34.50;62.50
76967;DHT22;65904;52.278;20.972;2023-07-24T13:14:44;33.20;64.10
76967;DHT22;65904;52.278;20.972;2023-07-24T13:17:31;33.10;65.50
76967;DHT22;65904;52.278;20.972;2023-07-24T13:20:17;32.50;66.20
76967;DHT22;65904;52.278;20.972;2023-07-24T13:23:03;32.40;65.30
76967;DHT22;65904;52.278;20.972;2023-07-24T13:25:51;32.30;66.00
76967;DHT22;65904;52.278;20.972;2023-07-24T13:28:38;32.30;66.90
76967;DHT22;65904;52.278;20.972;2023-07-24T13:31:25;32.30;66.40
76967;DHT22;65904;52.278;20.972;2023-07-24T13:34:13;32.30;66.80
76967;DHT22;65904;52.278;20.972;2023-07-24T13:36:59;32.30;67.70
76967;DHT22;65904;52.278;20.972;2023-07-24T13:39:46;31.90;67.70
76967;DHT22;65904;52.278;20.972;2023-07-24T13:42:33;31.90;67.10
76967;DHT22;65904;52.278;20.972;2023-07-24T13:45:20;31.90;67.10
76967;DHT22;65904;52.278;20.972;2023-07-24T13:48:06;31.60;67.70
76967;DHT22;65904;52.278;20.972;2023-07-24T13:50:52;31.60;67.50
76967;DHT22;65904;52.278;20.972;2023-07-24T13:53:38;32.30;66.80
76967;DHT22;65904;52.278;20.972;2023-07-24T13:56:24;32.40;65.60
76967;DHT22;65904;52.278;20.972;2023-07-24T13:59:13;33.20;63.30
76967;DHT22;65904;52.278;20.972;2023-07-24T14:01:59;33.30;63.10
76967;DHT22;65904;52.278;20.972;2023-07-24T14:04:45;33.50;61.10
76967;DHT22;65904;52.278;20.972;2023-07-24T14:07:31;33.70;60.00
76967;DHT22;65904;52.278;20.972;2023-07-24T14:10:17;33.30;59.80
76967;DHT22;65904;52.278;20.972;2023-07-24T14:13:04;32.60;60.60
76967;DHT22;65904;52.278;20.972;2023-07-24T14:15:51;31.90;62.50
76967;DHT22;65904;52.278;20.972;2023-07-24T14:18:37;31.80;62.20
76967;DHT22;65904;52.278;20.972;2023-07-24T14:21:24;31.90;62.70
76967;DHT22;65904;52.278;20.972;2023-07-24T14:24:10;32.30;62.50
76967;DHT22;65904;52.278;20.972;2023-07-24T14:26:56;32.60;61.90
76967;DHT22;65904;52.278;20.972;2023-07-24T14:29:43;32.80;61.00
76967;DHT22;65904;52.278;20.972;2023-07-24T14:32:30;32.60;61.20
76967;DHT22;65904;52.278;20.972;2023-07-24T14:35:16;32.50;61.20
76967;DHT22;65904;52.278;20.972;2023-07-24T14:38:02;32.70;61.00
76967;DHT22;65904;52.278;20.972;2023-07-24T14:40:49;32.80;60.10
76967;DHT22;65904;52.278;20.972;2023-07-24T14:43:35;32.60;61.20
76967;DHT22;65904;52.278;20.972;2023-07-24T14:46:20;32.40;60.50
76967;DHT22;65904;52.278;20.972;2023-07-24T14:49:08;32.60;61.20
76967;DHT22;65904;52.278;20.972;2023-07-24T14:51:55;32.80;61.10
76967;DHT22;65904;52.278;20.972;2023-07-24T14:54:40;32.60;60.80
76967;DHT22;65904;52.278;20.972;2023-07-24T14:57:27;32.40;61.10
76967;DHT22;65904;52.278;20.972;2023-07-24T15:00:14;32.00;62.30
76967;DHT22;65904;52.278;20.972;2023-07-24T15:03:01;31.70;62.30
76967;DHT22;65904;52.278;20.972;2023-07-24T15:05:48;31.40;63.40
76967;DHT22;65904;52.278;20.972;2023-07-24T15:08:35;31.10;64.00
76967;DHT22;65904;52.278;20.972;2023-07-24T15:11:21;31.00;64.80
76967;DHT22;65904;52.278;20.972;2023-07-24T15:14:08;31.20;64.50
76967;DHT22;65904;52.278;20.972;2023-07-24T15:16:54;31.40;64.60
76967;DHT22;65904;52.278;20.972;2023-07-24T15:19:40;31.70;64.80
76967;DHT22;65904;52.278;20.972;2023-07-24T15:22:28;31.90;64.20
76967;DHT22;65904;52.278;20.972;2023-07-24T15:25:14;32.40;63.20
76967;DHT22;65904;52.278;20.972;2023-07-24T15:28:00;33.40;60.80
76967;DHT22;65904;52.278;20.972;2023-07-24T15:30:46;34.80;59.40
76967;DHT22;65904;52.278;20.972;2023-07-24T15:33:32;36.20;57.30
76967;DHT22;65904;52.278;20.972;2023-07-24T15:36:19;35.80;56.20
76967;DHT22;65904;52.278;20.972;2023-07-24T15:39:06;35.80;56.50
76967;DHT22;65904;52.278;20.972;2023-07-24T15:41:52;35.90;56.00
76967;DHT22;65904;52.278;20.972;2023-07-24T15:44:38;35.70;56.20
76967;DHT22;65904;52.278;20.972;2023-07-24T15:47:25;35.90;55.60
76967;DHT22;65904;52.278;20.972;2023-07-24T15:50:11;36.40;54.90
76967;DHT22;65904;52.278;20.972;2023-07-24T15:52:57;36.50;55.40
76967;DHT22;65904;52.278;20.972;2023-07-24T15:55:45;36.40;54.20
76967;DHT22;65904;52.278;20.972;2023-07-24T15:58:31;37.60;53.70
76967;DHT22;65904;52.278;20.972;2023-07-24T16:01:17;37.80;52.10
76967;DHT22;65904;52.278;20.972;2023-07-24T16:04:03;36.00;53.70
76967;DHT22;65904;52.278;20.972;2023-07-24T16:06:49;35.90;54.30
76967;DHT22;65904;52.278;20.972;2023-07-24T16:09:36;35.50;54.80
76967;DHT22;65904;52.278;20.972;2023-07-24T16:12:24;34.40;56.30
76967;DHT22;65904;52.278;20.972;2023-07-24T16:15:10;34.10;56.70
76967;DHT22;65904;52.278;20.972;2023-07-24T16:17:57;34.40;56.50
76967;DHT22;65904;52.278;20.972;2023-07-24T16:20:43;34.40;56.10
76967;DHT22;65904;52.278;20.972;2023-07-24T16:23:29;33.90;57.20
76967;DHT22;65904;52.278;20.972;2023-07-24T16:26:15;33.30;57.70
76967;DHT22;65904;52.278;20.972;2023-07-24T16:29:03;32.90;58.00
76967;DHT22;65904;52.278;20.972;2023-07-24T16:31:49;33.10;57.80
76967;DHT22;65904;52.278;20.972;2023-07-24T16:34:35;33.10;58.00
76967;DHT22;65904;52.278;20.972;2023-07-24T16:37:22;33.00;57.80
76967;DHT22;65904;52.278;20.972;2023-07-24T16:40:10;32.80;58.20
76967;DHT22;65904;52.278;20.972;2023-07-24T16:42:56;32.40;59.40
76967;DHT22;65904;52.278;20.972;2023-07-24T16:45:44;32.20;59.90
76967;DHT22;65904;52.278;20.972;2023-07-24T16:48:34;32.30;59.90
76967;DHT22;65904;52.278;20.972;2023-07-24T16:51:20;32.10;59.50
76967;DHT22;65904;52.278;20.972;2023-07-24T16:54:06;32.00;59.70
76967;DHT22;65904;52.278;20.972;2023-07-24T16:56:52;32.00;60.70
76967;DHT22;65904;52.278;20.972;2023-07-24T16:59:38;32.10;61.20
76967;DHT22;65904;52.278;20.972;2023-07-24T17:02:25;32.00;61.40
76967;DHT22;65904;52.278;20.972;2023-07-24T17:05:12;31.60;60.30
76967;DHT22;65904;52.278;20.972;2023-07-24T17:07:58;31.40;61.60
76967;DHT22;65904;52.278;20.972;2023-07-24T17:10:46;31.20;61.30
76967;DHT22;65904;52.278;20.972;2023-07-24T17:13:32;30.90;61.90
76967;DHT22;65904;52.278;20.972;2023-07-24T17:16:19;30.80;62.60